Time;durP1;ratioP1;P1;durP2;ratioP2;P2;SDS_P1;SDS_P2;PMS_P1;PMS_P2;Temp;Humidity;BMP_temperature;BMP_pressure;BME280_temperature;BME280_humidity;BME280_pressure;Samples;Min_cycle;Max_cycle;Signal;HPM_P1;HPM_P2
2022/05/28 00:01:05;;;;;;;3.50;3.20;;;;;;;;;;5049625;28;20457;-79
2022/05/28 00:03:33;;;;;;;4.37;3.47;;;;;;;;;;5053109;28;20453;-79
2022/05/28 00:06:01;;;;;;;5.47;4.00;;;;;;;;;;5053629;28;20454;-78
2022/05/28 00:08:29;;;;;;;5.90;3.90;;;;;;;;;;5053397;28;20460;-78
2022/05/28 00:10:57;;;;;;;4.00;3.63;;;;;;;;;;5053682;28;20441;-78
2022/05/28 00:13:24;;;;;;;5.30;4.80;;;;;;;;;;5053138;28;20450;-79
2022/05/28 00:15:51;;;;;;;7.37;4.00;;;;;;;;;;5053663;28;20524;-79
2022/05/28 00:18:18;;;;;;;7.60;4.43;;;;;;;;;;5053313;28;20475;-79
2022/05/28 00:20:45;;;;;;;7.10;3.97;;;;;;;;;;5053163;28;20492;-78
2022/05/28 00:23:14;;;;;;;5.93;4.00;;;;;;;;;;5052996;28;20869;-79
2022/05/28 00:25:41;;;;;;;4.97;4.47;;;;;;;;;;5053668;28;20446;-78
2022/05/28 00:28:08;;;;;;;7.33;4.47;;;;;;;;;;5052987;28;20454;-79
2022/05/28 00:30:36;;;;;;;7.30;4.40;;;;;;;;;;5052409;28;20611;-79
2022/05/28 00:33:03;;;;;;;6.03;4.70;;;;;;;;;;5053072;28;20449;-80
2022/05/28 00:35:30;;;;;;;5.47;4.50;;;;;;;;;;5052869;28;20529;-78
2022/05/28 00:37:57;;;;;;;6.83;5.00;;;;;;;;;;5053118;28;20437;-79
2022/05/28 00:40:28;;;;;;;5.90;4.60;;;;;;;;;;5053073;28;20489;-79
2022/05/28 00:42:58;;;;;;;6.43;4.90;;;;;;;;;;5051869;28;20496;-79
2022/05/28 00:45:25;;;;;;;5.40;4.90;;;;;;;;;;5052163;28;20458;-78
2022/05/28 00:47:54;;;;;;;5.80;4.77;;;;;;;;;;5052643;28;20441;-80
2022/05/28 00:50:21;;;;;;;5.90;4.80;;;;;;;;;;5052328;28;20450;-78
2022/05/28 00:52:49;;;;;;;5.40;4.83;;;;;;;;;;5052941;28;20469;-78
2022/05/28 00:55:17;;;;;;;5.57;5.03;;;;;;;;;;5052169;28;20445;-78
2022/05/28 00:57:45;;;;;;;8.40;5.53;;;;;;;;;;5052190;28;20976;-78
2022/05/28 01:00:13;;;;;;;8.43;4.93;;;;;;;;;;5052490;28;20532;-79
2022/05/28 01:02:44;;;;;;;8.80;4.80;;;;;;;;;;5052190;28;20433;-78
2022/05/28 01:05:13;;;;;;;5.80;5.20;;;;;;;;;;5052439;28;20458;-78
2022/05/28 01:07:42;;;;;;;7.87;5.60;;;;;;;;;;5052074;28;20446;-78
2022/05/28 01:10:15;;;;;;;5.10;4.60;;;;;;;;;;5053264;28;20442;-79
2022/05/28 01:12:46;;;;;;;10.10;5.20;;;;;;;;;;5053136;28;20453;-78
2022/05/28 01:15:18;;;;;;;5.87;5.37;;;;;;;;;;5053832;28;20438;-78
2022/05/28 01:17:46;;;;;;;6.53;5.30;;;;;;;;;;5053750;28;20430;-79
2022/05/28 01:20:18;;;;;;;6.80;5.10;;;;;;;;;;5053920;28;20473;-77
2022/05/28 01:23:03;;;;;;;6.40;5.10;;;;;;;;;;5053596;28;20955;-79
2022/05/28 01:25:33;;;;;;;5.67;4.63;;;;;;;;;;5051984;28;20760;-78
2022/05/28 01:28:03;;;;;;;5.30;4.50;;;;;;;;;;5051915;28;20499;-78
2022/05/28 01:30:30;;;;;;;5.83;4.60;;;;;;;;;;5051984;28;20810;-78
2022/05/28 01:32:58;;;;;;;9.30;4.47;;;;;;;;;;5051448;28;20460;-80
2022/05/28 01:35:27;;;;;;;6.33;4.20;;;;;;;;;;5052035;28;21013;-78
2022/05/28 01:37:55;;;;;;;6.60;4.87;;;;;;;;;;5052358;28;20446;-78
2022/05/28 01:40:23;;;;;;;4.80;4.40;;;;;;;;;;5051899;28;20880;-79
2022/05/28 01:42:53;;;;;;;6.57;4.50;;;;;;;;;;5052339;28;20479;-78
2022/05/28 01:45:25;;;;;;;6.80;4.30;;;;;;;;;;5051957;28;20445;-78
2022/05/28 01:47:53;;;;;;;7.20;4.03;;;;;;;;;;5052677;28;20460;-78
2022/05/28 01:50:22;;;;;;;5.87;4.33;;;;;;;;;;5052479;28;20437;-79
2022/05/28 01:52:49;;;;;;;8.57;4.03;;;;;;;;;;5051922;28;20499;-78
2022/05/28 01:55:18;;;;;;;7.87;3.80;;;;;;;;;;5051985;28;20446;-77
2022/05/28 01:57:45;;;;;;;6.57;4.20;;;;;;;;;;5051688;28;20843;-78
2022/05/28 02:00:13;;;;;;;6.30;3.93;;;;;;;;;;5051578;28;20568;-79
2022/05/28 02:02:41;;;;;;;10.57;4.20;;;;;;;;;;5051797;28;20492;-79
2022/05/28 02:05:09;;;;;;;8.37;3.50;;;;;;;;;;5051660;28;20499;-77
2022/05/28 02:07:36;;;;;;;6.00;3.40;;;;;;;;;;5051438;28;21020;-78
2022/05/28 02:10:05;;;;;;;5.00;3.43;;;;;;;;;;5051437;28;20461;-79
2022/05/28 02:12:33;;;;;;;7.00;3.50;;;;;;;;;;5050698;28;20523;-77
2022/05/28 02:15:06;;;;;;;7.17;3.40;;;;;;;;;;5051259;28;20453;-78
2022/05/28 02:17:35;;;;;;;6.97;2.90;;;;;;;;;;5051429;28;20536;-79
2022/05/28 02:20:08;;;;;;;8.40;3.43;;;;;;;;;;5051541;28;20551;-79
2022/05/28 02:22:40;;;;;;;10.80;4.17;;;;;;;;;;5050932;28;20511;-78
2022/05/28 02:25:10;;;;;;;5.27;3.70;;;;;;;;;;5052839;28;20980;-78
2022/05/28 02:27:38;;;;;;;9.70;3.77;;;;;;;;;;5059223;28;20441;-78
2022/05/28 02:30:06;;;;;;;10.23;3.23;;;;;;;;;;5056487;28;20466;-80
2022/05/28 02:32:33;;;;;;;4.80;3.23;;;;;;;;;;5051249;28;20499;-77
2022/05/28 02:35:00;;;;;;;8.23;3.40;;;;;;;;;;5051304;28;20509;-78
2022/05/28 02:37:29;;;;;;;6.00;3.30;;;;;;;;;;5051324;28;20495;-79
2022/05/28 02:39:57;;;;;;;6.13;3.73;;;;;;;;;;5051074;28;20493;-80
2022/05/28 02:42:24;;;;;;;10.00;3.60;;;;;;;;;;5052402;28;20451;-80
2022/05/28 02:44:51;;;;;;;6.57;3.10;;;;;;;;;;5053546;28;20499;-78
2022/05/28 02:47:19;;;;;;;6.53;3.27;;;;;;;;;;5051685;28;20894;-78
2022/05/28 02:49:46;;;;;;;6.07;3.10;;;;;;;;;;5054815;28;20461;-77
2022/05/28 02:52:13;;;;;;;9.87;3.30;;;;;;;;;;5059619;28;20491;-79
2022/05/28 02:54:41;;;;;;;10.93;3.73;;;;;;;;;;5053672;28;20446;-79
2022/05/28 02:57:08;;;;;;;5.67;3.00;;;;;;;;;;5051665;28;20488;-78
2022/05/28 02:59:35;;;;;;;6.83;3.47;;;;;;;;;;5052706;28;21047;-78
2022/05/28 03:02:02;;;;;;;3.97;3.33;;;;;;;;;;5057368;28;20442;-78
2022/05/28 03:04:30;;;;;;;4.50;3.20;;;;;;;;;;5052260;28;20447;-78
2022/05/28 03:06:57;;;;;;;4.50;2.77;;;;;;;;;;5052237;28;20437;-79
2022/05/28 03:09:24;;;;;;;5.63;2.77;;;;;;;;;;5055389;28;20469;-77
2022/05/28 03:11:52;;;;;;;4.33;3.03;;;;;;;;;;5054742;28;20509;-78
2022/05/28 03:14:19;;;;;;;7.57;3.20;;;;;;;;;;5056164;28;20610;-78
2022/05/28 03:16:47;;;;;;;6.10;3.30;;;;;;;;;;5055265;28;20485;-78
2022/05/28 03:19:14;;;;;;;8.40;3.10;;;;;;;;;;5054296;28;20850;-79
2022/05/28 03:21:41;;;;;;;10.23;3.50;;;;;;;;;;5054648;28;20869;-77
2022/05/28 03:24:08;;;;;;;9.93;3.10;;;;;;;;;;5054352;28;20499;-77
2022/05/28 03:26:36;;;;;;;9.80;3.20;;;;;;;;;;5054260;28;20433;-78
2022/05/28 03:29:04;;;;;;;5.63;2.80;;;;;;;;;;5054074;28;20461;-77
2022/05/28 03:31:32;;;;;;;8.30;3.30;;;;;;;;;;5053995;28;20445;-77
2022/05/28 03:33:59;;;;;;;8.33;3.30;;;;;;;;;;5053646;28;20433;-78
2022/05/28 03:36:27;;;;;;;11.77;3.60;;;;;;;;;;5054130;28;20446;-79
2022/05/28 03:38:54;;;;;;;9.33;3.73;;;;;;;;;;5054088;28;20470;-78
2022/05/28 03:41:21;;;;;;;9.33;3.17;;;;;;;;;;5054198;28;20559;-77
2022/05/28 03:43:48;;;;;;;6.27;2.77;;;;;;;;;;5053852;28;20491;-78
2022/05/28 03:46:22;;;;;;;9.07;2.57;;;;;;;;;;5054180;28;20429;-78
2022/05/28 03:48:49;;;;;;;12.37;3.23;;;;;;;;;;5053938;28;20519;-78
2022/05/28 03:51:16;;;;;;;6.80;3.33;;;;;;;;;;5053730;28;20445;-78
2022/05/28 03:53:43;;;;;;;8.20;2.80;;;;;;;;;;5053403;28;20860;-78
2022/05/28 03:56:10;;;;;;;10.80;3.90;;;;;;;;;;5053564;28;20434;-77
2022/05/28 03:58:37;;;;;;;4.50;2.47;;;;;;;;;;5053309;28;20876;-78
2022/05/28 04:01:04;;;;;;;10.60;2.50;;;;;;;;;;5053253;28;20564;-78
2022/05/28 04:03:34;;;;;;;10.20;3.03;;;;;;;;;;5053542;28;20449;-79
2022/05/28 04:06:01;;;;;;;6.63;2.77;;;;;;;;;;5054009;28;20484;-77
2022/05/28 04:08:28;;;;;;;5.53;2.73;;;;;;;;;;5053357;28;20457;-79
2022/05/28 04:10:55;;;;;;;6.73;3.20;;;;;;;;;;5053398;28;20468;-78
2022/05/28 04:13:22;;;;;;;8.07;3.33;;;;;;;;;;5052794;28;20471;-80
2022/05/28 04:15:49;;;;;;;8.83;3.30;;;;;;;;;;5053576;28;20519;-78
2022/05/28 04:18:16;;;;;;;6.33;2.80;;;;;;;;;;5050248;28;20519;-80
2022/05/28 04:20:44;;;;;;;7.93;2.90;;;;;;;;;;5053300;28;20542;-78
2022/05/28 04:23:11;;;;;;;6.20;2.77;;;;;;;;;;5053644;28;20925;-78
2022/05/28 04:25:39;;;;;;;5.50;3.00;;;;;;;;;;5053099;28;20438;-79
2022/05/28 04:28:06;;;;;;;8.93;2.97;;;;;;;;;;5052764;28;20470;-77
2022/05/28 04:30:33;;;;;;;7.10;3.00;;;;;;;;;;5052940;28;20437;-78
2022/05/28 04:33:00;;;;;;;6.27;3.03;;;;;;;;;;5052452;28;20453;-77
2022/05/28 04:35:27;;;;;;;8.23;2.70;;;;;;;;;;5052670;28;20495;-79
2022/05/28 04:37:55;;;;;;;6.60;3.10;;;;;;;;;;5052706;28;20453;-78
2022/05/28 04:40:22;;;;;;;4.47;2.60;;;;;;;;;;5052231;28;20576;-77
2022/05/28 04:42:49;;;;;;;7.13;3.10;;;;;;;;;;5052261;28;20944;-78
2022/05/28 04:45:16;;;;;;;6.20;2.93;;;;;;;;;;5052525;28;20512;-77
2022/05/28 04:47:44;;;;;;;6.90;2.67;;;;;;;;;;5052772;28;20430;-78
2022/05/28 04:50:11;;;;;;;6.00;2.50;;;;;;;;;;5052830;28;20434;-78
2022/05/28 04:52:38;;;;;;;6.93;2.40;;;;;;;;;;5052422;28;20441;-78
2022/05/28 04:55:07;;;;;;;10.67;3.03;;;;;;;;;;5052261;28;20536;-79
2022/05/28 04:57:35;;;;;;;7.47;2.53;;;;;;;;;;5053075;28;20499;-78
2022/05/28 05:00:02;;;;;;;7.20;2.80;;;;;;;;;;5051926;28;20996;-79
2022/05/28 05:02:29;;;;;;;10.73;4.17;;;;;;;;;;5050985;28;20450;-80
2022/05/28 05:04:56;;;;;;;4.83;2.83;;;;;;;;;;5052278;28;20521;-78
2022/05/28 05:07:23;;;;;;;6.43;2.67;;;;;;;;;;5052378;28;20454;-77
2022/05/28 05:09:51;;;;;;;10.33;3.30;;;;;;;;;;5051904;28;20460;-78
2022/05/28 05:12:19;;;;;;;6.40;2.73;;;;;;;;;;5052448;28;20453;-79
2022/05/28 05:14:46;;;;;;;10.60;3.20;;;;;;;;;;5051989;28;20484;-77
2022/05/28 05:17:13;;;;;;;8.33;2.83;;;;;;;;;;5051913;28;20433;-78
2022/05/28 05:19:40;;;;;;;10.50;3.50;;;;;;;;;;5049686;28;20473;-76
2022/05/28 05:22:07;;;;;;;4.40;2.50;;;;;;;;;;5044629;28;20511;-79
2022/05/28 05:24:34;;;;;;;7.87;3.00;;;;;;;;;;5052415;28;20812;-78
2022/05/28 05:27:01;;;;;;;4.83;3.10;;;;;;;;;;5052281;28;20453;-78
2022/05/28 05:29:30;;;;;;;6.20;2.50;;;;;;;;;;5051359;28;20577;-78
2022/05/28 05:31:57;;;;;;;5.17;3.30;;;;;;;;;;5052308;28;20441;-77
2022/05/28 05:34:25;;;;;;;6.20;3.27;;;;;;;;;;5054918;28;20922;-78
2022/05/28 05:36:53;;;;;;;4.80;3.00;;;;;;;;;;5056215;28;20536;-78
2022/05/28 05:39:20;;;;;;;6.03;2.87;;;;;;;;;;5052865;28;20469;-77
2022/05/28 05:41:47;;;;;;;5.07;2.60;;;;;;;;;;5052221;28;20478;-78
2022/05/28 05:44:14;;;;;;;7.33;3.10;;;;;;;;;;5052165;28;20479;-79
2022/05/28 05:46:42;;;;;;;9.10;4.00;;;;;;;;;;5052159;28;20446;-78
2022/05/28 05:49:10;;;;;;;9.10;3.50;;;;;;;;;;5053451;28;20480;-77
2022/05/28 05:51:38;;;;;;;8.93;3.30;;;;;;;;;;5055262;28;20471;-79
2022/05/28 05:54:06;;;;;;;11.83;3.50;;;;;;;;;;5052534;28;20921;-77
2022/05/28 05:56:33;;;;;;;7.70;2.80;;;;;;;;;;5055969;28;20878;-78
2022/05/28 05:59:00;;;;;;;7.23;3.53;;;;;;;;;;5054922;28;21019;-77
2022/05/28 06:01:27;;;;;;;8.93;2.70;;;;;;;;;;5053391;28;20503;-77
2022/05/28 06:03:55;;;;;;;7.90;2.70;;;;;;;;;;5051477;28;20440;-77
2022/05/28 06:06:22;;;;;;;8.00;3.00;;;;;;;;;;5051552;28;20445;-77
2022/05/28 06:08:50;;;;;;;11.13;2.90;;;;;;;;;;5051653;28;21031;-78
2022/05/28 06:11:17;;;;;;;4.13;2.20;;;;;;;;;;5051714;28;20433;-78
2022/05/28 06:13:44;;;;;;;12.10;3.07;;;;;;;;;;5051564;28;20446;-78
2022/05/28 06:16:11;;;;;;;5.03;2.83;;;;;;;;;;5051392;28;20945;-77
2022/05/28 06:18:38;;;;;;;6.37;3.00;;;;;;;;;;5040197;28;20839;-78
2022/05/28 06:21:07;;;;;;;8.70;2.70;;;;;;;;;;5031895;28;20482;-79
2022/05/28 06:23:34;;;;;;;4.13;1.93;;;;;;;;;;5047192;28;20495;-78
2022/05/28 06:26:03;;;;;;;5.97;2.30;;;;;;;;;;5051501;28;20445;-78
2022/05/28 06:28:30;;;;;;;3.47;1.80;;;;;;;;;;5037910;28;21041;-77
2022/05/28 06:31:00;;;;;;;2.83;1.73;;;;;;;;;;5051928;28;20437;-77
2022/05/28 06:33:27;;;;;;;5.30;2.00;;;;;;;;;;5051848;28;20451;-79
2022/05/28 06:35:56;;;;;;;4.97;1.90;;;;;;;;;;5051853;28;20499;-79
2022/05/28 06:38:24;;;;;;;5.10;2.10;;;;;;;;;;5051693;28;20815;-78
2022/05/28 06:40:52;;;;;;;4.67;1.90;;;;;;;;;;5052936;28;20509;-80
2022/05/28 06:43:19;;;;;;;3.57;1.70;;;;;;;;;;5056802;28;20591;-78
2022/05/28 06:45:46;;;;;;;3.93;1.70;;;;;;;;;;5062531;28;20445;-78
2022/05/28 06:48:13;;;;;;;6.30;2.13;;;;;;;;;;5061894;28;20461;-78
2022/05/28 06:53:26;;;;;;;4.80;1.70;;;;;;;;;;5063504;28;20744;-79
2022/05/28 06:55:53;;;;;;;6.53;2.40;;;;;;;;;;5062026;28;20446;-78
2022/05/28 06:58:20;;;;;;;8.47;2.40;;;;;;;;;;5061186;28;20461;-79
2022/05/28 07:00:47;;;;;;;6.50;2.07;;;;;;;;;;5063449;28;20511;-78
2022/05/28 07:03:15;;;;;;;5.67;2.20;;;;;;;;;;5062955;28;20438;-77
2022/05/28 07:05:42;;;;;;;4.23;1.93;;;;;;;;;;5058241;28;20453;-78
2022/05/28 07:08:09;;;;;;;3.97;1.70;;;;;;;;;;5056714;28;20561;-80
2022/05/28 07:10:41;;;;;;;3.57;2.27;;;;;;;;;;5056173;28;20503;-77
2022/05/28 07:13:09;;;;;;;4.83;1.77;;;;;;;;;;5054654;28;20438;-78
2022/05/28 07:15:36;;;;;;;3.00;1.80;;;;;;;;;;5055399;28;20862;-78
2022/05/28 07:18:04;;;;;;;3.67;1.73;;;;;;;;;;5048324;28;20519;-78
2022/05/28 07:20:31;;;;;;;3.57;1.37;;;;;;;;;;5042332;28;20965;-78
2022/05/28 07:22:58;;;;;;;3.80;1.87;;;;;;;;;;5053802;28;20483;-78
2022/05/28 07:25:25;;;;;;;2.97;1.60;;;;;;;;;;5054307;28;20503;-78
2022/05/28 07:27:53;;;;;;;2.70;1.50;;;;;;;;;;5054331;28;20507;-77
2022/05/28 07:30:20;;;;;;;3.00;2.00;;;;;;;;;;5054683;28;20929;-79
2022/05/28 07:32:47;;;;;;;6.80;1.93;;;;;;;;;;5054672;28;20441;-78
2022/05/28 07:35:14;;;;;;;4.77;1.80;;;;;;;;;;5053986;28;20819;-79
2022/05/28 07:37:41;;;;;;;2.67;1.40;;;;;;;;;;5054006;28;20452;-77
2022/05/28 07:40:09;;;;;;;4.33;1.80;;;;;;;;;;5053946;28;20449;-78
2022/05/28 07:42:36;;;;;;;5.23;1.67;;;;;;;;;;5053898;28;20473;-79
2022/05/28 07:45:06;;;;;;;3.33;1.73;;;;;;;;;;5054200;28;20453;-79
2022/05/28 07:47:33;;;;;;;2.10;1.50;;;;;;;;;;5054311;28;20434;-79
2022/05/28 07:50:00;;;;;;;3.80;1.50;;;;;;;;;;5053403;28;20840;-79
2022/05/28 07:52:27;;;;;;;4.40;1.40;;;;;;;;;;5053494;28;20446;-78
2022/05/28 07:54:54;;;;;;;6.43;1.83;;;;;;;;;;5053678;28;20476;-79
2022/05/28 07:57:21;;;;;;;6.00;1.70;;;;;;;;;;5054164;28;20434;-79
2022/05/28 07:59:48;;;;;;;4.00;1.80;;;;;;;;;;5054043;28;20539;-80
2022/05/28 08:02:16;;;;;;;2.93;1.67;;;;;;;;;;5053121;28;20511;-78
2022/05/28 08:04:43;;;;;;;3.70;1.57;;;;;;;;;;5051868;28;20495;-78
2022/05/28 08:07:10;;;;;;;3.47;1.80;;;;;;;;;;5053015;28;20854;-78
2022/05/28 08:09:37;;;;;;;3.10;1.47;;;;;;;;;;5053311;28;20462;-79
2022/05/28 08:12:04;;;;;;;3.37;1.63;;;;;;;;;;5053542;28;20441;-78
2022/05/28 08:14:31;;;;;;;3.90;1.27;;;;;;;;;;5053039;28;20460;-78
2022/05/28 08:16:58;;;;;;;4.23;1.00;;;;;;;;;;5052724;28;20545;-78
2022/05/28 08:19:27;;;;;;;3.87;1.43;;;;;;;;;;5046852;28;20470;-78
2022/05/28 08:24:39;;;;;;;5.57;1.70;;;;;;;;;;5052700;28;20521;-78
2022/05/28 08:27:06;;;;;;;6.70;2.07;;;;;;;;;;5052845;28;20476;-79
2022/05/28 08:29:33;;;;;;;3.90;1.77;;;;;;;;;;5053062;28;20846;-77
2022/05/28 08:32:00;;;;;;;3.27;1.77;;;;;;;;;;5053319;28;20491;-80
2022/05/28 08:34:28;;;;;;;2.73;1.50;;;;;;;;;;5053050;28;20453;-79
2022/05/28 08:36:55;;;;;;;2.70;2.00;;;;;;;;;;5053212;28;21004;-79
2022/05/28 08:39:22;;;;;;;4.37;1.67;;;;;;;;;;5053363;28;20454;-78
2022/05/28 08:41:55;;;;;;;2.10;1.30;;;;;;;;;;5055686;28;21000;-79
2022/05/28 08:44:23;;;;;;;3.17;1.47;;;;;;;;;;5055326;28;20481;-78
2022/05/28 08:46:53;;;;;;;7.70;1.77;;;;;;;;;;5053368;28;20449;-80
2022/05/28 08:49:22;;;;;;;3.40;2.40;;;;;;;;;;5052865;28;20976;-79
2022/05/28 08:51:52;;;;;;;3.97;1.40;;;;;;;;;;5052889;28;20438;-79
2022/05/28 08:54:24;;;;;;;7.40;2.23;;;;;;;;;;5052795;28;20434;-79
2022/05/28 08:56:53;;;;;;;2.80;1.30;;;;;;;;;;5054765;28;20452;-80
2022/05/28 08:59:22;;;;;;;2.03;1.47;;;;;;;;;;5055043;28;20446;-78
2022/05/28 09:01:49;;;;;;;4.20;1.60;;;;;;;;;;5053525;28;20856;-78
2022/05/28 09:04:18;;;;;;;4.43;1.63;;;;;;;;;;5061518;28;20483;-78
2022/05/28 09:06:46;;;;;;;4.13;1.90;;;;;;;;;;5064562;28;20469;-81
2022/05/28 09:09:16;;;;;;;5.33;1.73;;;;;;;;;;5060818;28;20579;-79
2022/05/28 09:11:45;;;;;;;2.70;1.63;;;;;;;;;;5052806;28;20576;-79
2022/05/28 09:14:22;;;;;;;2.70;1.93;;;;;;;;;;5052293;28;20479;-80
2022/05/28 09:16:50;;;;;;;4.70;2.03;;;;;;;;;;5052776;28;20533;-80
2022/05/28 09:19:19;;;;;;;2.60;1.27;;;;;;;;;;5053129;28;20491;-78
2022/05/28 09:21:47;;;;;;;2.00;1.33;;;;;;;;;;5052339;28;20822;-78
2022/05/28 09:24:18;;;;;;;3.27;1.67;;;;;;;;;;5051837;28;20515;-78
2022/05/28 09:26:52;;;;;;;4.80;2.17;;;;;;;;;;5052090;28;20480;-78
2022/05/28 09:29:23;;;;;;;2.10;1.30;;;;;;;;;;5051977;28;20880;-78
2022/05/28 09:31:57;;;;;;;2.30;1.23;;;;;;;;;;5052327;28;20472;-79
2022/05/28 09:34:30;;;;;;;2.77;1.40;;;;;;;;;;5051943;28;20836;-80
2022/05/28 09:37:00;;;;;;;3.70;1.50;;;;;;;;;;5051739;28;20937;-78
2022/05/28 09:39:38;;;;;;;5.70;1.60;;;;;;;;;;5051798;28;20985;-79
2022/05/28 09:42:07;;;;;;;3.80;1.77;;;;;;;;;;5051832;28;20528;-78
2022/05/28 09:44:43;;;;;;;3.37;1.70;;;;;;;;;;5051997;28;20507;-79
2022/05/28 09:47:12;;;;;;;4.30;1.80;;;;;;;;;;5052241;28;20453;-79
2022/05/28 09:49:47;;;;;;;4.00;1.50;;;;;;;;;;5052038;28;20505;-78
2022/05/28 09:52:15;;;;;;;3.30;1.30;;;;;;;;;;5052009;28;20498;-79
2022/05/28 09:54:42;;;;;;;2.67;1.30;;;;;;;;;;5051406;28;20437;-79
2022/05/28 09:57:11;;;;;;;5.10;1.40;;;;;;;;;;5051484;28;20454;-78
2022/05/28 09:59:49;;;;;;;1.70;1.10;;;;;;;;;;5051945;28;20485;-79
2022/05/28 10:02:17;;;;;;;2.90;1.80;;;;;;;;;;5051744;28;20784;-77
2022/05/28 10:04:45;;;;;;;1.37;1.17;;;;;;;;;;5051981;28;20864;-78
2022/05/28 10:07:12;;;;;;;4.50;1.70;;;;;;;;;;5052338;28;20552;-78
2022/05/28 10:09:50;;;;;;;4.13;1.90;;;;;;;;;;5051984;28;20469;-78
2022/05/28 10:12:22;;;;;;;3.67;1.40;;;;;;;;;;5052311;28;20441;-77
2022/05/28 10:14:58;;;;;;;4.73;1.90;;;;;;;;;;5051956;28;20517;-77
2022/05/28 10:17:26;;;;;;;4.20;2.13;;;;;;;;;;5055082;28;20444;-77
2022/05/28 10:19:54;;;;;;;3.30;1.53;;;;;;;;;;5056069;28;20870;-78
2022/05/28 10:22:23;;;;;;;3.63;1.70;;;;;;;;;;5055628;28;20481;-78
2022/05/28 10:24:52;;;;;;;2.97;1.53;;;;;;;;;;5055392;28;20459;-78
2022/05/28 10:27:29;;;;;;;4.57;1.77;;;;;;;;;;5055441;28;20951;-80
2022/05/28 10:29:57;;;;;;;3.73;1.40;;;;;;;;;;5067329;28;20458;-80
2022/05/28 10:32:28;;;;;;;3.77;1.80;;;;;;;;;;5063520;28;20957;-80
2022/05/28 10:35:00;;;;;;;2.10;1.50;;;;;;;;;;5060656;28;20453;-78
2022/05/28 10:37:27;;;;;;;3.03;1.87;;;;;;;;;;5052585;28;20457;-77
2022/05/28 10:40:02;;;;;;;5.10;2.23;;;;;;;;;;5068515;28;20452;-77
2022/05/28 10:42:31;;;;;;;5.07;2.27;;;;;;;;;;5066773;28;20473;-81
2022/05/28 10:44:58;;;;;;;2.97;1.90;;;;;;;;;;5069583;28;20453;-78
2022/05/28 10:47:37;;;;;;;1.80;1.47;;;;;;;;;;5072913;28;20450;-78
2022/05/28 10:50:11;;;;;;;5.73;1.90;;;;;;;;;;5069002;28;20458;-80
2022/05/28 10:52:46;;;;;;;2.53;1.67;;;;;;;;;;5071745;28;20462;-79
2022/05/28 10:55:14;;;;;;;2.90;1.93;;;;;;;;;;5072799;28;20463;-78
2022/05/28 10:57:49;;;;;;;3.70;1.40;;;;;;;;;;5070621;28;20808;-80
2022/05/28 11:00:16;;;;;;;2.27;1.53;;;;;;;;;;5070603;28;20471;-78
2022/05/28 11:02:54;;;;;;;3.10;1.90;;;;;;;;;;5066242;28;20481;-79
2022/05/28 11:05:28;;;;;;;4.13;1.70;;;;;;;;;;5064495;28;20426;-77
2022/05/28 11:07:59;;;;;;;2.80;1.83;;;;;;;;;;5058284;28;20522;-77
2022/05/28 11:10:39;;;;;;;2.20;1.70;;;;;;;;;;5058161;28;20429;-76
2022/05/28 11:13:22;;;;;;;2.87;1.20;;;;;;;;;;5056513;28;20441;-78
2022/05/28 11:15:55;;;;;;;1.43;1.33;;;;;;;;;;5055392;28;20512;-78
2022/05/28 11:18:31;;;;;;;4.47;1.50;;;;;;;;;;5055696;28;20461;-78
2022/05/28 11:21:03;;;;;;;4.70;1.70;;;;;;;;;;5055326;28;20795;-76
2022/05/28 11:23:39;;;;;;;2.40;1.17;;;;;;;;;;5057358;28;20461;-77
2022/05/28 11:26:13;;;;;;;2.07;1.40;;;;;;;;;;5062293;28;20826;-77
2022/05/28 11:28:48;;;;;;;4.40;1.10;;;;;;;;;;5058111;28;20528;-77
2022/05/28 11:31:18;;;;;;;3.87;1.90;;;;;;;;;;5056314;28;20437;-76
2022/05/28 11:33:47;;;;;;;2.77;1.50;;;;;;;;;;5056302;28;20959;-78
2022/05/28 11:36:23;;;;;;;3.73;1.90;;;;;;;;;;5056321;28;20520;-77
2022/05/28 11:38:52;;;;;;;2.00;1.40;;;;;;;;;;5057626;28;20866;-78
2022/05/28 11:41:23;;;;;;;1.70;1.00;;;;;;;;;;5062254;28;20468;-77
2022/05/28 11:43:54;;;;;;;3.50;1.80;;;;;;;;;;5060786;28;20531;-77
2022/05/28 11:46:23;;;;;;;4.47;1.73;;;;;;;;;;5059731;28;20449;-77
2022/05/28 11:51:56;;;;;;;4.90;1.40;;;;;;;;;;4997545;28;20495;-79
2022/05/28 11:54:27;;;;;;;2.70;1.00;;;;;;;;;;4993895;28;20444;-78
2022/05/28 11:56:56;;;;;;;3.53;1.30;;;;;;;;;;5022890;28;20445;-77
2022/05/28 11:59:26;;;;;;;2.13;1.07;;;;;;;;;;5054594;28;20824;-77
2022/05/28 12:01:55;;;;;;;3.40;1.43;;;;;;;;;;5053721;28;20437;-80
2022/05/28 12:04:22;;;;;;;1.47;1.27;;;;;;;;;;5055068;28;20933;-78
2022/05/28 12:07:00;;;;;;;2.03;1.33;;;;;;;;;;5057264;28;20526;-77
2022/05/28 12:09:32;;;;;;;2.07;1.13;;;;;;;;;;5054582;28;20465;-77
2022/05/28 12:12:04;;;;;;;2.80;1.80;;;;;;;;;;5056786;28;20467;-79
2022/05/28 12:14:35;;;;;;;4.40;1.57;;;;;;;;;;5056827;28;20495;-77
2022/05/28 12:17:08;;;;;;;3.33;1.40;;;;;;;;;;5053164;28;20977;-78
2022/05/28 12:19:36;;;;;;;2.77;1.87;;;;;;;;;;5053141;28;20564;-79
2022/05/28 12:22:08;;;;;;;2.23;1.53;;;;;;;;;;5053413;28;20821;-78
2022/05/28 12:24:37;;;;;;;3.57;1.70;;;;;;;;;;5052847;28;20484;-77
2022/05/28 12:27:15;;;;;;;2.20;1.50;;;;;;;;;;5052738;28;20456;-77
2022/05/28 12:29:58;;;;;;;10.50;2.03;;;;;;;;;;5053125;28;20556;-79
2022/05/28 12:32:26;;;;;;;3.27;1.50;;;;;;;;;;5053409;28;20441;-77
2022/05/28 12:34:54;;;;;;;2.40;1.40;;;;;;;;;;5052792;28;20563;-77
2022/05/28 12:37:22;;;;;;;1.57;1.10;;;;;;;;;;5052847;28;20450;-78
2022/05/28 12:39:54;;;;;;;2.70;1.23;;;;;;;;;;5052773;28;20466;-77
2022/05/28 12:42:23;;;;;;;2.63;1.73;;;;;;;;;;5052740;28;20484;-77
2022/05/28 12:44:52;;;;;;;1.90;1.40;;;;;;;;;;5052490;28;20445;-77
2022/05/28 12:47:27;;;;;;;3.00;1.50;;;;;;;;;;5052662;28;20441;-77
2022/05/28 12:49:57;;;;;;;4.13;1.67;;;;;;;;;;5052583;28;20890;-77
2022/05/28 12:52:28;;;;;;;3.20;1.77;;;;;;;;;;5052957;28;20472;-79
2022/05/28 12:55:04;;;;;;;4.10;1.93;;;;;;;;;;5053047;28;20521;-78
2022/05/28 12:57:33;;;;;;;4.53;1.57;;;;;;;;;;5053347;28;20449;-78
2022/05/28 13:00:01;;;;;;;1.97;1.50;;;;;;;;;;5052964;28;20477;-78
2022/05/28 13:02:30;;;;;;;4.13;1.20;;;;;;;;;;5052404;28;20481;-79
2022/05/28 13:05:01;;;;;;;2.17;1.50;;;;;;;;;;5053302;28;20441;-79
2022/05/28 13:07:34;;;;;;;2.50;1.43;;;;;;;;;;5053233;28;20441;-79
2022/05/28 13:10:03;;;;;;;10.00;1.57;;;;;;;;;;5053171;28;20470;-79
2022/05/28 13:12:33;;;;;;;4.17;1.67;;;;;;;;;;5055737;28;20441;-78
2022/05/28 13:15:14;;;;;;;2.83;1.50;;;;;;;;;;5069378;28;20476;-77
2022/05/28 13:17:54;;;;;;;3.80;1.73;;;;;;;;;;5058056;28;20456;-78
2022/05/28 13:20:27;;;;;;;2.27;1.10;;;;;;;;;;5054948;28;20438;-78
2022/05/28 13:23:03;;;;;;;1.63;1.20;;;;;;;;;;5053397;28;20560;-77
2022/05/28 13:25:42;;;;;;;2.53;1.27;;;;;;;;;;5053088;28;20677;-77
2022/05/28 13:28:25;;;;;;;3.77;1.50;;;;;;;;;;5052932;28;20469;-77
2022/05/28 13:30:54;;;;;;;2.33;1.30;;;;;;;;;;5052850;28;20446;-78
2022/05/28 13:33:23;;;;;;;2.60;1.57;;;;;;;;;;5052902;28;20446;-77
2022/05/28 13:35:52;;;;;;;2.50;1.30;;;;;;;;;;5051891;28;20507;-78
2022/05/28 13:38:21;;;;;;;2.30;1.50;;;;;;;;;;5052168;28;20466;-78
2022/05/28 13:40:48;;;;;;;2.70;1.33;;;;;;;;;;5051980;28;20477;-77
2022/05/28 13:43:17;;;;;;;3.00;1.10;;;;;;;;;;5051879;28;20910;-78
2022/05/28 13:45:46;;;;;;;1.63;1.03;;;;;;;;;;5051512;28;20461;-79
2022/05/28 13:48:16;;;;;;;2.77;1.33;;;;;;;;;;5051307;28;20515;-77
2022/05/28 13:50:45;;;;;;;2.63;1.07;;;;;;;;;;5050949;28;20525;-78
2022/05/28 13:53:14;;;;;;;3.43;1.30;;;;;;;;;;5052196;28;20434;-78
2022/05/28 13:55:42;;;;;;;2.43;1.13;;;;;;;;;;5051409;28;20450;-77
2022/05/28 13:58:19;;;;;;;3.30;1.00;;;;;;;;;;5051706;28;20461;-77
2022/05/28 14:00:53;;;;;;;1.90;1.03;;;;;;;;;;5051590;28;20969;-77
2022/05/28 14:03:25;;;;;;;3.77;1.20;;;;;;;;;;5051702;28;20538;-78
2022/05/28 14:05:54;;;;;;;2.40;1.53;;;;;;;;;;5051940;28;20784;-77
2022/05/28 14:08:23;;;;;;;2.80;1.20;;;;;;;;;;5051710;28;20551;-77
2022/05/28 14:10:53;;;;;;;3.97;1.90;;;;;;;;;;5052033;28;20857;-78
2022/05/28 14:13:21;;;;;;;3.70;1.60;;;;;;;;;;5051535;28;20492;-77
2022/05/28 14:15:51;;;;;;;3.00;1.20;;;;;;;;;;5051970;28;20457;-78
2022/05/28 14:18:20;;;;;;;1.50;1.30;;;;;;;;;;5052042;28;20544;-77
2022/05/28 14:20:47;;;;;;;3.80;1.47;;;;;;;;;;5052065;28;20448;-79
2022/05/28 14:23:25;;;;;;;2.47;1.60;;;;;;;;;;5051247;28;20477;-77
2022/05/28 14:25:52;;;;;;;1.73;1.10;;;;;;;;;;5051237;28;20443;-80
2022/05/28 14:28:20;;;;;;;3.40;1.30;;;;;;;;;;5051835;28;20548;-78
2022/05/28 14:30:47;;;;;;;1.17;0.97;;;;;;;;;;5051364;28;20930;-78
2022/05/28 14:33:21;;;;;;;1.57;1.03;;;;;;;;;;5051223;28;20487;-79
2022/05/28 14:35:48;;;;;;;3.30;1.40;;;;;;;;;;5051605;28;20422;-78
2022/05/28 14:38:26;;;;;;;1.93;0.90;;;;;;;;;;5051055;28;20490;-78
2022/05/28 14:40:54;;;;;;;2.30;1.30;;;;;;;;;;5051596;28;20781;-78
2022/05/28 14:43:29;;;;;;;2.90;1.10;;;;;;;;;;5051394;28;20524;-78
2022/05/28 14:46:04;;;;;;;2.87;1.23;;;;;;;;;;5051270;28;20814;-77
2022/05/28 14:48:31;;;;;;;1.80;1.33;;;;;;;;;;5051382;28;20815;-78
2022/05/28 14:51:02;;;;;;;1.67;1.20;;;;;;;;;;5050929;28;20453;-77
2022/05/28 14:53:33;;;;;;;1.60;1.30;;;;;;;;;;5051708;28;20425;-79
2022/05/28 14:56:00;;;;;;;3.50;1.37;;;;;;;;;;5059435;28;20955;-78
2022/05/28 14:58:27;;;;;;;3.50;1.50;;;;;;;;;;5061217;28;20472;-79
2022/05/28 15:01:05;;;;;;;4.47;1.27;;;;;;;;;;5051795;28;20445;-78
2022/05/28 15:03:33;;;;;;;2.40;1.10;;;;;;;;;;5053762;28;20530;-79